Time;durP1;ratioP1;P1;durP2;ratioP2;P2;SDS_P1;SDS_P2;PMS_P1;PMS_P2;Temp;Humidity;BMP_temperature;BMP_pressure;BME280_temperature;BME280_humidity;BME280_pressure;Samples;Min_cycle;Max_cycle;Signal;HPM_P1;HPM_P2
2020/12/27 00:01:55;;;;;;;1.73;1.47;;;4.50;99.90;;;;;;20688999;28;20304;-74
2020/12/27 00:12:08;;;;;;;0.20;0.10;;;4.80;99.90;;;;;;20689126;28;20237;-73
2020/12/27 00:22:12;;;;;;;0.20;0.10;;;5.00;99.90;;;;;;20691381;28;20202;-74
2020/12/27 00:32:14;;;;;;;0.33;0.33;;;5.20;99.90;;;;;;20689025;28;20223;-73
2020/12/27 00:42:26;;;;;;;0.40;0.40;;;5.30;99.90;;;;;;20691020;28;20209;-75
2020/12/27 00:52:29;;;;;;;0.30;0.20;;;5.50;99.90;;;;;;20704136;28;20679;-74
2020/12/27 01:02:32;;;;;;;0.40;0.40;;;5.70;99.90;;;;;;20740785;22;20242;-77
2020/12/27 01:12:46;;;;;;;1.27;0.50;;;5.70;99.90;;;;;;20743553;28;20259;-74
2020/12/27 01:22:55;;;;;;;0.33;0.27;;;5.10;99.90;;;;;;20735637;28;20221;-74
2020/12/27 01:32:58;;;;;;;0.30;0.30;;;5.00;99.90;;;;;;20738222;28;20573;-74
2020/12/27 01:43:10;;;;;;;0.20;0.20;;;4.90;99.90;;;;;;20740228;28;20194;-72
2020/12/27 01:53:13;;;;;;;0.30;0.30;;;4.90;99.90;;;;;;20759895;28;20227;-73
2020/12/27 02:03:17;;;;;;;0.30;0.20;;;4.90;99.90;;;;;;20683594;28;20257;-73
2020/12/27 02:13:25;;;;;;;0.30;0.17;;;4.80;99.90;;;;;;20700125;28;20580;-74
2020/12/27 02:23:28;;;;;;;0.30;0.30;;;4.70;99.90;;;;;;20698486;28;20951;-72
2020/12/27 02:33:34;;;;;;;7.43;1.00;;;4.30;99.90;;;;;;20697891;28;20223;-73
2020/12/27 02:43:42;;;;;;;6.67;0.90;;;4.80;99.90;;;;;;20698098;28;20218;-73
2020/12/27 02:53:48;;;;;;;0.20;0.17;;;4.70;99.90;;;;;;20698238;28;20302;-74
2020/12/27 03:03:51;;;;;;;0.30;0.30;;;5.00;99.90;;;;;;20696447;28;20758;-75
2020/12/27 03:14:06;;;;;;;0.20;0.20;;;4.90;99.90;;;;;;20694511;28;20223;-74
2020/12/27 03:24:09;;;;;;;1.40;0.33;;;4.60;99.90;;;;;;20694003;28;20202;-74
2020/12/27 03:34:14;;;;;;;0.57;0.20;;;4.30;99.90;;;;;;20694709;28;20781;-73
2020/12/27 03:44:20;;;;;;;0.20;0.10;;;4.10;99.90;;;;;;20695733;28;20206;-74
2020/12/27 03:54:23;;;;;;;0.20;0.10;;;4.20;99.90;;;;;;20693117;28;20234;-74
2020/12/27 04:04:26;;;;;;;0.20;0.20;;;4.00;99.90;;;;;;20747748;23;20241;-69
2020/12/27 04:14:39;;;;;;;0.20;0.20;;;4.20;99.90;;;;;;20773863;28;20225;-70
2020/12/27 04:24:42;;;;;;;0.90;0.33;;;4.20;99.90;;;;;;20787953;28;20447;-70
2020/12/27 04:34:45;;;;;;;0.20;0.10;;;4.00;99.90;;;;;;20786480;28;20721;-71
2020/12/27 04:45:01;;;;;;;2.00;1.33;;;4.40;99.90;;;;;;20788780;28;20201;-71
2020/12/27 04:55:04;;;;;;;0.20;0.10;;;4.40;99.90;;;;;;20788915;28;20226;-70
2020/12/27 05:05:13;;;;;;;0.20;0.10;;;4.40;99.90;;;;;;20754937;23;20729;-75
2020/12/27 05:15:18;;;;;;;0.20;0.10;;;4.90;99.90;;;;;;20704403;28;20222;-75
2020/12/27 05:25:21;;;;;;;0.23;0.23;;;4.60;99.90;;;;;;20701507;28;20282;-72
2020/12/27 05:35:25;;;;;;;0.20;0.10;;;4.50;99.90;;;;;;20702247;28;20234;-73
2020/12/27 05:45:37;;;;;;;0.20;0.20;;;4.60;99.90;;;;;;20701100;28;20198;-76
2020/12/27 05:55:45;;;;;;;0.30;0.20;;;4.30;99.90;;;;;;20701516;28;20225;-74
2020/12/27 06:06:11;;;;;;;0.83;0.83;;;4.40;99.90;;;;;;20700679;28;20245;-74
2020/12/27 06:16:20;;;;;;;0.20;0.20;;;3.90;99.90;;;;;;20700647;28;20195;-74
2020/12/27 06:26:25;;;;;;;0.33;0.33;;;3.40;99.90;;;;;;20701383;28;20677;-75
2020/12/27 06:36:32;;;;;;;0.70;0.70;;;3.20;99.90;;;;;;20697765;28;20199;-76
2020/12/27 06:46:46;;;;;;;0.20;0.10;;;3.10;99.90;;;;;;20698751;28;20376;-74
2020/12/27 06:56:52;;;;;;;0.20;0.17;;;3.60;99.90;;;;;;20696225;28;20221;-75
2020/12/27 07:06:54;;;;;;;0.47;0.47;;;3.30;99.90;;;;;;20695651;28;20434;-76
2020/12/27 07:16:58;;;;;;;0.20;0.10;;;2.90;99.90;;;;;;20693555;28;20638;-75
2020/12/27 07:27:03;;;;;;;0.30;0.20;;;3.30;99.90;;;;;;20695450;28;20572;-76
2020/12/27 07:37:07;;;;;;;0.20;0.10;;;3.40;99.90;;;;;;20693171;28;20702;-74
2020/12/27 07:47:10;;;;;;;0.93;0.60;;;3.20;99.90;;;;;;20693862;28;20626;-75
2020/12/27 07:57:15;;;;;;;0.20;0.10;;;3.80;99.90;;;;;;20704061;28;20864;-71
2020/12/27 08:07:20;;;;;;;0.73;0.50;;;4.40;99.90;;;;;;20709850;28;20231;-74
2020/12/27 08:17:24;;;;;;;0.57;0.37;;;4.50;99.90;;;;;;20711031;28;20637;-74
2020/12/27 08:27:26;;;;;;;0.70;0.70;;;4.30;99.90;;;;;;20707951;28;20237;-74
2020/12/27 08:37:34;;;;;;;0.37;0.37;;;4.60;99.90;;;;;;20708652;28;20313;-74
2020/12/27 08:47:47;;;;;;;0.40;0.40;;;4.80;99.90;;;;;;20706975;28;20238;-73
2020/12/27 08:57:51;;;;;;;0.20;0.10;;;4.90;99.90;;;;;;20704293;28;20328;-74
2020/12/27 09:07:53;;;;;;;0.20;0.10;;;5.00;99.90;;;;;;20705433;28;20484;-75
2020/12/27 09:17:59;;;;;;;0.20;0.10;;;5.50;99.90;;;;;;20704028;28;20205;-75
2020/12/27 09:28:12;;;;;;;0.87;0.27;;;6.20;99.90;;;;;;20703998;28;20334;-74
2020/12/27 09:38:26;;;;;;;0.77;0.30;;;6.70;99.90;;;;;;20702655;28;20218;-71
2020/12/27 09:48:32;;;;;;;0.50;0.50;;;6.60;99.90;;;;;;20700344;28;20229;-74
2020/12/27 09:58:35;;;;;;;11.83;0.57;;;7.10;99.90;;;;;;20700855;28;20213;-73
2020/12/27 10:08:38;;;;;;;0.30;0.30;;;7.20;99.90;;;;;;20695664;28;20238;-76
2020/12/27 10:18:41;;;;;;;0.20;0.20;;;7.20;99.90;;;;;;20697906;28;20210;-77
2020/12/27 10:28:44;;;;;;;0.20;0.10;;;7.60;99.90;;;;;;20692867;28;20695;-74
2020/12/27 10:38:48;;;;;;;0.77;0.50;;;7.90;99.90;;;;;;20694633;28;20548;-73
2020/12/27 10:48:52;;;;;;;0.30;0.27;;;8.00;99.90;;;;;;20687366;28;20695;-85
2020/12/27 10:58:55;;;;;;;0.30;0.30;;;7.90;99.90;;;;;;20692520;28;20469;-75
2020/12/27 11:08:58;;;;;;;0.97;0.63;;;8.20;99.90;;;;;;20690852;28;20234;-73
2020/12/27 11:19:08;;;;;;;0.50;0.37;;;8.50;99.90;;;;;;20692714;28;20213;-70
2020/12/27 11:29:12;;;;;;;1.13;0.63;;;9.40;99.90;;;;;;20686907;28;20231;-73
2020/12/27 11:39:15;;;;;;;0.20;0.17;;;9.70;99.90;;;;;;20690623;28;20201;-71
2020/12/27 11:49:27;;;;;;;1.70;0.40;;;9.60;99.90;;;;;;20685741;28;20253;-74
2020/12/27 11:59:30;;;;;;;0.40;0.20;;;9.80;99.90;;;;;;20688343;28;20579;-81
2020/12/27 12:09:33;;;;;;;0.53;0.50;;;10.10;99.90;;;;;;20691195;28;20227;-78
2020/12/27 12:19:46;;;;;;;3.93;0.80;;;10.00;99.90;;;;;;20688890;28;20774;-73
2020/12/27 12:29:50;;;;;;;0.20;0.20;;;9.80;99.90;;;;;;20689052;28;20223;-75
2020/12/27 12:39:53;;;;;;;8.13;0.67;;;10.00;99.90;;;;;;20689986;28;20199;-76
2020/12/27 12:50:05;;;;;;;0.67;0.67;;;10.30;99.90;;;;;;20699905;28;20225;-78
2020/12/27 13:00:08;;;;;;;0.73;0.50;;;10.30;99.90;;;;;;20704438;28;20242;-77
2020/12/27 13:10:11;;;;;;;1.90;0.30;;;10.70;99.90;;;;;;20702116;28;20234;-78
2020/12/27 13:20:29;;;;;;;0.83;0.40;;;10.30;99.90;;;;;;20699461;28;20231;-77
2020/12/27 13:30:34;;;;;;;1.80;0.57;;;10.60;99.90;;;;;;20703144;28;20233;-75
2020/12/27 13:40:39;;;;;;;0.33;0.27;;;10.40;99.90;;;;;;20699028;28;20549;-78
2020/12/27 13:50:49;;;;;;;0.53;0.50;;;10.50;99.90;;;;;;20699658;28;20230;-82
2020/12/27 14:00:52;;;;;;;1.47;0.50;;;10.20;99.90;;;;;;20701147;28;20223;-75
2020/12/27 14:10:55;;;;;;;0.77;0.50;;;9.90;99.90;;;;;;20700270;28;20703;-77
2020/12/27 14:21:05;;;;;;;0.40;0.40;;;9.80;99.90;;;;;;20695862;28;20206;-75
2020/12/27 14:31:08;;;;;;;0.23;0.23;;;9.80;99.90;;;;;;20697954;28;20234;-73
2020/12/27 14:41:15;;;;;;;0.50;0.30;;;9.60;99.90;;;;;;20697081;28;20203;-75
2020/12/27 14:51:23;;;;;;;6.93;1.03;;;9.50;99.90;;;;;;20692328;28;20218;-73
2020/12/27 15:01:27;;;;;;;1.53;1.07;;;9.40;99.90;;;;;;20685773;28;20272;-72
2020/12/27 15:11:30;;;;;;;0.40;0.40;;;9.30;99.90;;;;;;20690141;28;20610;-72
2020/12/27 15:21:42;;;;;;;1.27;0.70;;;9.30;99.90;;;;;;20690024;28;20230;-72
2020/12/27 15:31:44;;;;;;;2.83;0.63;;;9.30;99.90;;;;;;20675617;28;20238;-70
2020/12/27 15:41:47;;;;;;;0.30;0.30;;;9.30;99.90;;;;;;20689288;28;20213;-72
2020/12/27 15:52:02;;;;;;;2.50;0.80;;;9.30;99.90;;;;;;20691107;28;20226;-72
2020/12/27 16:02:06;;;;;;;1.43;1.17;;;9.10;99.90;;;;;;20679008;28;20310;-71
2020/12/27 16:12:08;;;;;;;0.63;0.63;;;9.00;99.90;;;;;;20664309;28;20749;-73
2020/12/27 16:22:20;;;;;;;1.40;0.53;;;8.90;99.90;;;;;;20666659;28;20930;-74
2020/12/27 16:32:24;;;;;;;0.40;0.40;;;8.90;99.90;;;;;;20653649;28;20222;-70
2020/12/27 16:42:32;;;;;;;0.20;0.20;;;9.00;99.90;;;;;;20704632;28;20600;-71
2020/12/27 16:52:36;;;;;;;0.77;0.77;;;9.10;99.90;;;;;;20680847;28;20222;-72
2020/12/27 17:02:40;;;;;;;0.30;0.20;;;9.00;99.90;;;;;;20664234;28;20496;-74
2020/12/27 17:12:42;;;;;;;0.30;0.30;;;9.00;99.90;;;;;;20700392;28;20222;-73
2020/12/27 17:22:57;;;;;;;6.13;1.13;;;8.90;99.90;;;;;;20693587;28;20662;-74
2020/12/27 17:33:08;;;;;;;0.70;0.70;;;8.70;99.90;;;;;;20699213;28;20307;-71
2020/12/27 17:43:14;;;;;;;1.33;0.87;;;8.80;99.90;;;;;;20678328;28;20207;-72
2020/12/27 17:53:20;;;;;;;10.17;0.97;;;8.70;99.90;;;;;;20682305;28;20682;-72
2020/12/27 18:03:24;;;;;;;1.40;0.67;;;8.70;99.90;;;;;;20695691;28;20481;-73
2020/12/27 18:13:28;;;;;;;1.97;0.70;;;8.80;99.90;;;;;;20694708;28;20307;-72
2020/12/27 18:23:51;;;;;;;0.33;0.23;;;8.80;99.90;;;;;;20710159;28;20224;-71
2020/12/27 18:33:53;;;;;;;0.63;0.60;;;8.50;99.90;;;;;;20695489;28;20265;-73
2020/12/27 18:43:57;;;;;;;0.83;0.63;;;8.30;99.90;;;;;;20690927;28;20195;-73
2020/12/27 18:54:00;;;;;;;1.97;1.07;;;8.10;99.90;;;;;;20686178;28;20486;-72
2020/12/27 19:04:06;;;;;;;2.93;1.07;;;8.10;99.90;;;;;;20611315;28;20232;-74
2020/12/27 19:14:11;;;;;;;1.00;0.97;;;8.50;99.90;;;;;;20612010;28;21018;-73
2020/12/27 19:24:15;;;;;;;0.40;0.30;;;8.80;99.90;;;;;;20659730;28;20231;-74
2020/12/27 19:34:18;;;;;;;0.30;0.20;;;9.30;99.90;;;;;;20694221;28;20332;-76
2020/12/27 19:44:22;;;;;;;0.50;0.50;;;9.50;99.90;;;;;;20694762;28;20277;-83
2020/12/27 19:54:28;;;;;;;0.87;0.40;;;9.80;99.90;;;;;;20691721;28;20222;-75
2020/12/27 20:04:31;;;;;;;0.27;0.20;;;9.70;99.90;;;;;;20690468;28;20227;-75
2020/12/27 20:14:34;;;;;;;0.20;0.20;;;9.30;99.90;;;;;;20695080;28;20237;-79
2020/12/27 20:24:50;;;;;;;0.47;0.47;;;9.00;99.90;;;;;;20692408;28;20306;-79
2020/12/27 20:34:53;;;;;;;1.37;0.67;;;9.30;99.90;;;;;;20689237;28;21453;-73
2020/12/27 20:44:57;;;;;;;0.47;0.47;;;9.40;99.90;;;;;;20671052;28;20306;-78
2020/12/27 20:55:05;;;;;;;3.57;2.23;;;9.20;99.90;;;;;;20675979;28;20549;-84
2020/12/27 21:05:09;;;;;;;0.20;0.20;;;9.40;99.90;;;;;;20707141;28;20241;-80
2020/12/27 21:15:12;;;;;;;0.87;0.60;;;9.70;99.90;;;;;;20709822;28;20238;-80
2020/12/27 21:25:17;;;;;;;0.50;0.50;;;9.70;99.90;;;;;;20710693;28;20201;-82
2020/12/27 21:35:19;;;;;;;0.50;0.50;;;9.80;99.90;;;;;;20670736;28;20233;-85
2020/12/27 21:45:23;;;;;;;0.37;0.33;;;9.90;99.90;;;;;;20693348;28;20392;-83
2020/12/27 21:55:36;;;;;;;0.50;0.40;;;9.80;99.90;;;;;;20624252;28;20429;-85
2020/12/27 22:05:40;;;;;;;0.30;0.27;;;9.80;99.90;;;;;;20627147;28;20242;-75
2020/12/27 22:15:42;;;;;;;0.30;0.30;;;9.60;99.90;;;;;;20623714;28;20228;-78
2020/12/27 22:25:47;;;;;;;0.30;0.30;;;9.40;99.90;;;;;;20618894;28;20542;-78
2020/12/27 22:35:49;;;;;;;0.27;0.13;;;9.80;99.90;;;;;;20619903;28;20230;-76
2020/12/27 22:45:55;;;;;;;0.33;0.27;;;10.60;99.90;;;;;;20616442;28;20196;-70
2020/12/27 22:55:59;;;;;;;0.37;0.27;;;10.70;99.90;;;;;;20619224;28;20570;-69
2020/12/27 23:06:02;;;;;;;0.50;0.40;;;10.20;99.90;;;;;;20614376;28;20219;-72
2020/12/27 23:16:06;;;;;;;0.27;0.27;;;9.50;99.90;;;;;;20682976;28;20500;-71
2020/12/27 23:26:09;;;;;;;0.40;0.40;;;9.70;99.90;;;;;;20692876;28;20270;-82
2020/12/27 23:36:12;;;;;;;0.20;0.10;;;9.50;99.90;;;;;;20697598;28;20230;-75
2020/12/27 23:46:16;;;;;;;0.53;0.53;;;9.70;99.90;;;;;;20695107;28;20213;-74
2020/12/27 23:56:18;;;;;;;0.40;0.17;;;10.00;99.90;;;;;;20696388;28;20306;-69
